Time;durP1;ratioP1;P1;durP2;ratioP2;P2;SDS_P1;SDS_P2;PMS_P1;PMS_P2;Temp;Humidity;BMP_temperature;BMP_pressure;BME280_temperature;BME280_humidity;BME280_pressure;Samples;Min_cycle;Max_cycle;Signal;HPM_P1;HPM_P2
2022/06/08 00:01:10;;;;;;;;;;;;;;;17.10;50.48;100343.28;5069585;28;941;-59
2022/06/08 00:03:45;;;;;;;;;;;;;;;17.08;52.84;100320.78;5062102;28;1127;-59
2022/06/08 00:06:11;;;;;;;;;;;;;;;17.42;55.40;100324.59;5050292;28;968;-59
2022/06/08 00:08:36;;;;;;;;;;;;;;;17.48;58.38;100328.09;5065767;28;1007;-59
2022/06/08 00:11:02;;;;;;;;;;;;;;;17.50;60.44;100312.13;5069052;28;1016;-59
2022/06/08 00:13:27;;;;;;;;;;;;;;;17.85;61.54;100319.19;5068164;28;1918;-59
2022/06/08 00:15:54;;;;;;;;;;;;;;;17.56;63.58;100306.28;5065001;28;1451;-59
2022/06/08 00:18:19;;;;;;;;;;;;;;;17.31;65.71;100318.38;5070433;28;1035;-59
2022/06/08 00:20:44;;;;;;;;;;;;;;;17.82;64.89;100322.50;5071222;28;1095;-59
2022/06/08 00:23:10;;;;;;;;;;;;;;;17.99;65.19;100319.28;5064374;28;1056;-59
2022/06/08 00:25:35;;;;;;;;;;;;;;;17.85;65.95;100321.09;5071844;28;1171;-59
2022/06/08 00:28:01;;;;;;;;;;;;;;;17.76;66.73;100329.19;5044518;28;977;-59
2022/06/08 00:30:26;;;;;;;;;;;;;;;17.86;67.07;100328.22;5073188;28;952;-59
2022/06/08 00:32:53;;;;;;;;;;;;;;;18.30;65.90;100318.91;5050988;28;1922;-59
2022/06/08 00:35:19;;;;;;;;;;;;;;;18.42;65.78;100321.22;5043974;28;1143;-59
2022/06/08 00:37:44;;;;;;;;;;;;;;;18.05;65.95;100331.06;5072182;28;894;-59
2022/06/08 00:40:10;;;;;;;;;;;;;;;17.56;66.28;100324.72;5071968;28;976;-58
2022/06/08 00:42:36;;;;;;;;;;;;;;;17.39;65.23;100320.50;5063904;28;1012;-59
2022/06/08 00:45:03;;;;;;;;;;;;;;;17.71;61.96;100337.47;5066563;28;962;-58
2022/06/08 00:47:30;;;;;;;;;;;;;;;17.69;60.24;100324.03;5062929;28;995;-59
2022/06/08 00:50:01;;;;;;;;;;;;;;;17.21;60.17;100329.47;5050982;28;1218;-58
2022/06/08 00:52:26;;;;;;;;;;;;;;;17.44;58.31;100327.84;5050775;28;1971;-59
2022/06/08 00:54:57;;;;;;;;;;;;;;;17.62;57.06;100329.84;5037240;28;1210;-58
2022/06/08 00:57:26;;;;;;;;;;;;;;;17.50;57.07;100332.22;5050422;28;935;-58
2022/06/08 00:59:57;;;;;;;;;;;;;;;17.28;56.54;100329.94;5043130;28;1119;-58
2022/06/08 01:02:22;;;;;;;;;;;;;;;17.57;55.69;100329.94;5027764;28;991;-59
2022/06/08 01:04:49;;;;;;;;;;;;;;;17.44;55.71;100325.91;5053358;28;1238;-59
2022/06/08 01:07:18;;;;;;;;;;;;;;;17.36;55.36;100340.31;5058333;28;1151;-59
2022/06/08 01:09:43;;;;;;;;;;;;;;;17.56;54.93;100319.22;5043438;28;1156;-58
2022/06/08 01:12:13;;;;;;;;;;;;;;;17.35;55.60;100330.44;5049913;28;1421;-58
2022/06/08 01:14:43;;;;;;;;;;;;;;;17.15;56.16;100325.09;5059471;28;1225;-59
2022/06/08 01:17:14;;;;;;;;;;;;;;;17.22;56.04;100325.59;5056121;28;1470;-58
2022/06/08 01:19:42;;;;;;;;;;;;;;;17.23;57.49;100340.97;5060209;28;1367;-58
2022/06/08 01:22:08;;;;;;;;;;;;;;;17.58;58.57;100328.81;5070909;28;1158;-59
2022/06/08 01:24:41;;;;;;;;;;;;;;;17.73;60.08;100327.81;5058812;28;1276;-58
2022/06/08 01:27:15;;;;;;;;;;;;;;;17.71;61.95;100341.06;5053078;28;1081;-59
2022/06/08 01:29:59;;;;;;;;;;;;;;;17.98;62.49;100345.19;5040426;28;1171;-59
2022/06/08 01:32:34;;;;;;;;;;;;;;;17.97;63.68;100346.28;5073430;28;1963;-58
2022/06/08 01:35:23;;;;;;;;;;;;;;;17.64;65.58;100337.81;5066881;28;805;-58
2022/06/08 01:38:06;;;;;;;;;;;;;;;17.76;65.83;100326.44;5019503;28;1177;-59
2022/06/08 01:40:35;;;;;;;;;;;;;;;18.28;64.83;100326.63;5052182;28;1060;-58
2022/06/08 01:43:03;;;;;;;;;;;;;;;18.03;66.12;100331.34;5065330;28;1319;-58
2022/06/08 01:45:47;;;;;;;;;;;;;;;17.83;66.06;100339.84;5045480;28;1261;-58
2022/06/08 01:48:22;;;;;;;;;;;;;;;17.72;66.36;100339.13;5074320;28;929;-58
2022/06/08 01:51:02;;;;;;;;;;;;;;;17.79;66.85;100334.09;5070669;28;983;-58
2022/06/08 01:53:30;;;;;;;;;;;;;;;18.24;65.95;100339.34;5064433;28;1968;-58
2022/06/08 01:55:58;;;;;;;;;;;;;;;18.39;65.60;100324.56;5055201;28;1190;-58
2022/06/08 01:58:25;;;;;;;;;;;;;;;17.87;66.35;100338.94;5040636;28;1231;-59
2022/06/08 02:01:03;;;;;;;;;;;;;;;17.58;66.13;100330.75;5050825;28;1162;-58
2022/06/08 02:03:29;;;;;;;;;;;;;;;17.65;63.61;100336.72;5033440;28;1232;-58
2022/06/08 02:05:58;;;;;;;;;;;;;;;17.88;60.90;100342.50;5039027;28;1311;-58
2022/06/08 02:08:24;;;;;;;;;;;;;;;17.56;60.58;100352.22;5052749;28;1329;-58
2022/06/08 02:11:00;;;;;;;;;;;;;;;17.50;59.42;100353.38;5065749;28;1079;-58
2022/06/08 02:13:29;;;;;;;;;;;;;;;17.48;58.70;100350.09;5042783;28;1911;-58
2022/06/08 02:16:03;;;;;;;;;;;;;;;17.43;57.79;100351.78;5047214;28;1300;-58
2022/06/08 02:18:31;;;;;;;;;;;;;;;17.39;57.54;100352.63;5058775;28;1131;-58
2022/06/08 02:20:57;;;;;;;;;;;;;;;17.47;56.52;100352.00;5077110;28;972;-58
2022/06/08 02:23:23;;;;;;;;;;;;;;;17.08;57.44;100351.00;5058332;28;1274;-58
2022/06/08 02:25:53;;;;;;;;;;;;;;;17.27;56.43;100347.53;5052004;28;1136;-57
2022/06/08 02:28:19;;;;;;;;;;;;;;;17.37;55.91;100369.41;5052891;28;1063;-57
2022/06/08 02:30:49;;;;;;;;;;;;;;;17.26;56.06;100352.22;5041808;28;1151;-59
2022/06/08 02:36:02;;;;;;;;;;;;;;;17.28;56.04;100355.47;5040276;28;1167;-59
2022/06/08 02:38:34;;;;;;;;;;;;;;;17.92;55.97;100360.94;5074869;28;865;-59
2022/06/08 02:40:59;;;;;;;;;;;;;;;17.83;58.44;100356.34;5058293;28;1232;-58
2022/06/08 02:43:35;;;;;;;;;;;;;;;18.16;59.08;100367.50;5057128;28;1162;-58
2022/06/08 02:46:19;;;;;;;;;;;;;;;17.48;61.26;100363.84;5067109;28;1024;-59
2022/06/08 02:48:46;;;;;;;;;;;;;;;16.58;61.54;100364.75;5048029;28;1326;-59
2022/06/08 02:51:12;;;;;;;;;;;;;;;16.72;66.91;100367.69;5054532;28;869;-59
2022/06/08 02:53:47;;;;;;;;;;;;;;;17.48;67.71;100370.16;5046612;28;1969;-59
2022/06/08 02:56:14;;;;;;;;;;;;;;;17.94;65.71;100375.19;5037611;28;1132;-58
2022/06/08 02:58:48;;;;;;;;;;;;;;;18.21;65.07;100372.97;5041140;28;1215;-60
2022/06/08 03:01:35;;;;;;;;;;;;;;;17.28;63.73;100379.41;5069987;28;1067;-61
2022/06/08 03:04:03;;;;;;;;;;;;;;;16.79;62.21;100388.50;5049846;28;1476;-61
2022/06/08 03:06:33;;;;;;;;;;;;;;;16.76;64.95;100373.44;5067647;28;1012;-61
2022/06/08 03:09:00;;;;;;;;;;;;;;;17.06;65.46;100388.91;5040998;28;1259;-60
2022/06/08 03:11:26;;;;;;;;;;;;;;;16.86;65.79;100383.53;5047985;28;1231;-61
2022/06/08 03:14:02;;;;;;;;;;;;;;;17.14;67.65;100384.75;5055352;28;1937;-61
2022/06/08 03:16:29;;;;;;;;;;;;;;;16.93;66.83;100376.66;5052382;28;1353;-60
2022/06/08 03:18:57;;;;;;;;;;;;;;;16.74;66.09;100383.88;5048043;28;2173;-60
2022/06/08 03:21:22;;;;;;;;;;;;;;;16.85;66.78;100371.72;5067674;28;1276;-61
2022/06/08 03:23:50;;;;;;;;;;;;;;;17.38;68.37;100384.00;5049862;28;1243;-61
2022/06/08 03:26:17;;;;;;;;;;;;;;;17.56;69.43;100376.97;5047499;28;1263;-61
2022/06/08 03:28:43;;;;;;;;;;;;;;;17.69;69.40;100378.19;5048647;28;1304;-61
2022/06/08 03:31:09;;;;;;;;;;;;;;;17.92;68.26;100377.44;5040660;28;1120;-62
2022/06/08 03:33:34;;;;;;;;;;;;;;;17.86;66.95;100389.56;5066201;28;1921;-60
2022/06/08 03:36:01;;;;;;;;;;;;;;;17.60;66.03;100365.09;5055794;28;1127;-60
2022/06/08 03:38:28;;;;;;;;;;;;;;;17.51;64.61;100377.00;5049995;28;1162;-60
2022/06/08 03:40:54;;;;;;;;;;;;;;;17.72;62.66;100375.69;5052479;28;1162;-60
2022/06/08 03:43:19;;;;;;;;;;;;;;;17.45;62.26;100363.28;5068788;28;1000;-61
2022/06/08 03:45:47;;;;;;;;;;;;;;;17.56;60.45;100360.47;5072714;28;985;-60
2022/06/08 03:48:12;;;;;;;;;;;;;;;17.39;60.49;100367.22;5038920;28;1223;-61
2022/06/08 03:50:41;;;;;;;;;;;;;;;17.72;59.03;100372.91;5070648;28;996;-61
2022/06/08 03:53:08;;;;;;;;;;;;;;;17.29;59.73;100359.03;5067435;28;1909;-58
2022/06/08 03:55:33;;;;;;;;;;;;;;;17.39;58.85;100371.88;5068676;28;882;-60
2022/06/08 03:57:59;;;;;;;;;;;;;;;17.37;58.48;100366.66;5066462;28;1139;-60
2022/06/08 04:00:27;;;;;;;;;;;;;;;17.47;58.20;100378.69;5053118;28;1409;-60
2022/06/08 04:03:07;;;;;;;;;;;;;;;17.62;57.13;100367.53;5039935;28;1148;-60
2022/06/08 04:05:32;;;;;;;;;;;;;;;17.35;57.86;100373.56;5052160;28;1291;-60
2022/06/08 04:08:01;;;;;;;;;;;;;;;17.40;57.75;100377.09;5071570;28;944;-59
2022/06/08 04:10:27;;;;;;;;;;;;;;;17.55;57.11;100373.38;5056588;28;1111;-60
2022/06/08 04:12:56;;;;;;;;;;;;;;;17.35;57.80;100368.06;5051021;28;1923;-61
2022/06/08 04:18:12;;;;;;;;;;;;;;;17.32;57.72;100368.66;5042954;28;1206;-60
2022/06/08 04:20:38;;;;;;;;;;;;;;;17.54;57.00;100370.91;5043722;28;1098;-59
2022/06/08 04:23:03;;;;;;;;;;;;;;;17.44;57.22;100369.09;5070144;28;1074;-60
2022/06/08 04:25:29;;;;;;;;;;;;;;;17.56;56.89;100371.47;5044426;28;1154;-60
2022/06/08 04:27:55;;;;;;;;;;;;;;;17.52;56.65;100390.44;5053383;28;1352;-60
2022/06/08 04:30:23;;;;;;;;;;;;;;;17.19;57.67;100387.44;5057456;28;1932;-60
2022/06/08 04:32:48;;;;;;;;;;;;;;;17.35;57.33;100385.38;5069369;28;1914;-60
2022/06/08 04:35:16;;;;;;;;;;;;;;;17.59;56.59;100385.44;5060898;28;1213;-59
2022/06/08 04:37:41;;;;;;;;;;;;;;;17.33;57.46;100387.59;5070281;28;991;-59
2022/06/08 04:40:08;;;;;;;;;;;;;;;17.44;57.43;100394.63;5052918;28;1196;-59
2022/06/08 04:42:34;;;;;;;;;;;;;;;17.48;57.55;100389.38;5060156;28;1093;-58
2022/06/08 04:44:59;;;;;;;;;;;;;;;17.48;57.94;100394.06;5066162;28;916;-59
2022/06/08 04:47:25;;;;;;;;;;;;;;;17.68;57.77;100388.38;5051527;28;1138;-59
2022/06/08 04:49:51;;;;;;;;;;;;;;;17.57;57.96;100387.66;5054626;28;1241;-59
2022/06/08 04:52:17;;;;;;;;;;;;;;;17.35;58.82;100384.53;5059311;28;1107;-61
2022/06/08 04:54:42;;;;;;;;;;;;;;;17.64;57.94;100387.31;5056905;28;1910;-61
2022/06/08 04:57:08;;;;;;;;;;;;;;;17.52;58.34;100378.66;5041237;28;1334;-60
2022/06/08 04:59:34;;;;;;;;;;;;;;;17.84;58.77;100380.78;5055317;28;1242;-59
2022/06/08 05:02:42;;;;;;;;;;;;;;;17.81;60.93;100383.28;5051158;28;1178;-61
2022/06/08 05:04:59;;;;;;;;;;;;;;;17.93;63.11;100394.75;5059580;28;1321;-59
2022/06/08 05:07:24;;;;;;;;;;;;;;;17.93;64.04;100381.00;5059907;28;1245;-59
2022/06/08 05:09:50;;;;;;;;;;;;;;;17.94;65.44;100379.88;5054190;28;1134;-60
2022/06/08 05:12:16;;;;;;;;;;;;;;;17.85;66.66;100387.09;5039788;28;1210;-61
2022/06/08 05:14:42;;;;;;;;;;;;;;;17.90;66.97;100395.31;5045123;28;1990;-62
2022/06/08 05:17:08;;;;;;;;;;;;;;;17.90;67.68;100400.81;5054283;28;1336;-64
2022/06/08 05:19:34;;;;;;;;;;;;;;;18.11;67.43;100398.69;5072870;28;1004;-60
2022/06/08 05:22:00;;;;;;;;;;;;;;;18.42;66.69;100403.81;5047711;28;1285;-59
2022/06/08 05:24:26;;;;;;;;;;;;;;;18.54;66.68;100400.63;5046251;28;1235;-61
2022/06/08 05:26:52;;;;;;;;;;;;;;;18.73;66.05;100401.47;5050069;28;1008;-61
2022/06/08 05:29:19;;;;;;;;;;;;;;;18.54;63.96;100403.38;5057134;28;1178;-58
2022/06/08 05:31:49;;;;;;;;;;;;;;;18.27;61.09;100402.06;5049647;28;1457;-61
2022/06/08 05:34:14;;;;;;;;;;;;;;;17.97;57.24;100393.06;5041376;28;1975;-59
2022/06/08 05:36:42;;;;;;;;;;;;;;;17.54;54.03;100393.72;5051921;28;1205;-59
2022/06/08 05:39:14;;;;;;;;;;;;;;;17.43;50.88;100401.25;5049358;28;1156;-63
2022/06/08 05:41:42;;;;;;;;;;;;;;;17.48;48.24;100403.13;5044948;28;1629;-58
2022/06/08 05:44:09;;;;;;;;;;;;;;;17.26;47.22;100400.84;5052050;28;1239;-58
2022/06/08 05:46:35;;;;;;;;;;;;;;;17.06;47.01;100393.59;5054589;28;912;-59
2022/06/08 05:49:06;;;;;;;;;;;;;;;16.97;48.67;100396.13;5055852;28;1362;-58
2022/06/08 05:51:34;;;;;;;;;;;;;;;17.20;52.10;100396.50;5057596;28;1187;-59
2022/06/08 05:54:00;;;;;;;;;;;;;;;17.51;55.31;100394.31;5058294;28;2023;-59
2022/06/08 05:56:25;;;;;;;;;;;;;;;17.78;57.38;100393.78;5050376;28;1160;-59
2022/06/08 05:58:51;;;;;;;;;;;;;;;18.14;58.67;100403.59;5050258;28;1175;-59
2022/06/08 06:01:17;;;;;;;;;;;;;;;17.99;60.98;100404.56;5049470;28;1155;-59
2022/06/08 06:03:42;;;;;;;;;;;;;;;17.98;62.26;100408.47;5042761;28;1175;-60
2022/06/08 06:06:08;;;;;;;;;;;;;;;17.97;63.44;100406.81;5052492;28;1957;-57
2022/06/08 06:08:33;;;;;;;;;;;;;;;18.11;63.98;100402.22;5052326;28;1190;-60
2022/06/08 06:11:14;;;;;;;;;;;;;;;18.13;64.50;100405.53;5052600;28;1160;-60
2022/06/08 06:13:42;;;;;;;;;;;;;;;18.30;64.81;100415.25;5058149;28;2024;-61
2022/06/08 06:16:13;;;;;;;;;;;;;;;18.39;64.86;100415.41;5057233;28;1245;-60
2022/06/08 06:18:40;;;;;;;;;;;;;;;18.49;65.03;100406.19;5053176;28;1163;-60
2022/06/08 06:21:34;;;;;;;;;;;;;;;18.50;63.79;100411.41;5056983;28;1075;-60
2022/06/08 06:24:22;;;;;;;;;;;;;;;18.27;61.47;100418.56;5073027;28;1198;-58
2022/06/08 06:26:48;;;;;;;;;;;;;;;18.00;57.98;100417.22;5074606;28;1075;-59
2022/06/08 06:29:16;;;;;;;;;;;;;;;17.91;53.82;100424.50;5064078;28;925;-59
2022/06/08 06:32:10;;;;;;;;;;;;;;;17.87;49.97;100401.41;5065352;28;1054;-59
2022/06/08 06:34:43;;;;;;;;;;;;;;;17.23;48.86;100390.44;5038891;28;1902;-60
2022/06/08 06:37:09;;;;;;;;;;;;;;;17.13;46.95;100409.75;5053449;28;1425;-59
2022/06/08 06:39:35;;;;;;;;;;;;;;;17.21;45.33;100406.41;5070297;28;1156;-60
2022/06/08 06:42:14;;;;;;;;;;;;;;;16.87;45.77;100401.66;5048835;28;1179;-59
2022/06/08 06:44:42;;;;;;;;;;;;;;;16.79;46.62;100407.72;5051359;28;1166;-58
2022/06/08 06:47:14;;;;;;;;;;;;;;;17.49;46.81;100395.69;5058861;28;1148;-58
2022/06/08 06:49:50;;;;;;;;;;;;;;;17.58;50.86;100404.97;5057850;28;1343;-58
2022/06/08 06:52:17;;;;;;;;;;;;;;;17.82;52.92;100406.94;5048333;28;1281;-60
2022/06/08 06:54:43;;;;;;;;;;;;;;;17.07;56.88;100407.03;5065185;28;1977;-59
2022/06/08 06:57:09;;;;;;;;;;;;;;;16.73;59.84;100412.44;5068340;28;1403;-58
2022/06/08 06:59:36;;;;;;;;;;;;;;;17.92;57.69;100409.59;5051378;28;1667;-61
2022/06/08 07:02:02;;;;;;;;;;;;;;;18.23;58.30;100423.84;5052078;28;1375;-60
2022/06/08 07:04:28;;;;;;;;;;;;;;;18.38;59.42;100417.31;5045700;28;1155;-61
2022/06/08 07:06:56;;;;;;;;;;;;;;;17.75;61.34;100412.78;5050949;28;1580;-59
2022/06/08 07:09:21;;;;;;;;;;;;;;;16.95;61.67;100409.31;5055159;28;1106;-59
2022/06/08 07:11:47;;;;;;;;;;;;;;;16.50;60.51;100413.94;5064886;28;1083;-60
2022/06/08 07:14:17;;;;;;;;;;;;;;;16.56;64.17;100415.56;5041579;28;1914;-61
2022/06/08 07:16:45;;;;;;;;;;;;;;;17.39;70.46;100416.69;5055113;28;1383;-60
2022/06/08 07:19:11;;;;;;;;;;;;;;;18.06;66.79;100410.56;5052123;28;1226;-60
2022/06/08 07:21:37;;;;;;;;;;;;;;;18.02;62.44;100409.50;5054935;28;1233;-60
2022/06/08 07:24:03;;;;;;;;;;;;;;;17.63;58.40;100407.69;5049069;28;1226;-60
2022/06/08 07:26:28;;;;;;;;;;;;;;;16.65;58.03;100408.38;5058294;28;961;-59
2022/06/08 07:28:57;;;;;;;;;;;;;;;16.94;53.85;100415.91;5068933;28;956;-58
2022/06/08 07:31:23;;;;;;;;;;;;;;;17.27;51.22;100421.72;5068640;28;850;-60
2022/06/08 07:33:48;;;;;;;;;;;;;;;17.20;50.50;100413.00;5066368;28;1905;-59
2022/06/08 07:36:13;;;;;;;;;;;;;;;17.39;49.83;100429.59;5069844;28;1174;-60
2022/06/08 07:38:40;;;;;;;;;;;;;;;16.90;52.40;100412.94;5063910;28;981;-60
2022/06/08 07:41:05;;;;;;;;;;;;;;;17.71;52.95;100414.47;5064061;28;1161;-59
2022/06/08 07:43:31;;;;;;;;;;;;;;;17.89;54.85;100421.16;5059528;28;1000;-59
2022/06/08 07:45:56;;;;;;;;;;;;;;;18.22;56.89;100413.13;5070059;28;1063;-60
2022/06/08 07:51:06;;;;;;;;;;;;;;;16.53;60.68;100411.44;5068561;28;960;-59
2022/06/08 07:53:31;;;;;;;;;;;;;;;16.87;67.54;100412.63;5051172;28;1906;-58
2022/06/08 07:55:56;;;;;;;;;;;;;;;17.89;65.43;100426.66;5063791;28;1005;-60
2022/06/08 07:58:22;;;;;;;;;;;;;;;18.15;64.59;100423.69;5070248;28;1209;-58
2022/06/08 08:00:48;;;;;;;;;;;;;;;18.55;63.25;100413.25;5058662;28;1209;-59
2022/06/08 08:03:14;;;;;;;;;;;;;;;17.70;64.77;100416.41;5062699;28;1119;-58
2022/06/08 08:05:40;;;;;;;;;;;;;;;17.09;63.49;100410.31;5065036;28;1202;-60
2022/06/08 08:08:06;;;;;;;;;;;;;;;16.79;64.48;100410.47;5073404;28;1015;-60
2022/06/08 08:10:31;;;;;;;;;;;;;;;16.90;64.39;100414.84;5066578;28;1040;-60
2022/06/08 08:12:56;;;;;;;;;;;;;;;16.80;64.82;100428.59;5076491;28;1906;-60
2022/06/08 08:15:23;;;;;;;;;;;;;;;17.09;67.38;100424.03;5075569;28;1011;-59
2022/06/08 08:17:48;;;;;;;;;;;;;;;17.18;67.78;100424.28;5073787;28;1004;-59
2022/06/08 08:20:14;;;;;;;;;;;;;;;17.13;67.62;100415.25;5072238;28;989;-59
2022/06/08 08:22:40;;;;;;;;;;;;;;;17.35;68.19;100428.53;5049085;28;1299;-59
2022/06/08 08:25:06;;;;;;;;;;;;;;;17.38;68.45;100423.28;5070641;28;1028;-59
2022/06/08 08:27:31;;;;;;;;;;;;;;;17.56;68.96;100418.19;5070346;28;1039;-60
2022/06/08 08:29:57;;;;;;;;;;;;;;;17.78;68.92;100412.19;5076679;28;906;-59
2022/06/08 08:32:22;;;;;;;;;;;;;;;17.80;69.25;100420.97;5072107;28;1001;-59
2022/06/08 08:34:48;;;;;;;;;;;;;;;17.93;68.99;100423.06;5069488;28;1985;-59
2022/06/08 08:37:13;;;;;;;;;;;;;;;18.11;68.98;100438.00;5072355;28;1091;-60
2022/06/08 08:39:38;;;;;;;;;;;;;;;18.21;68.43;100428.00;5072600;28;1103;-58
2022/06/08 08:42:22;;;;;;;;;;;;;;;18.06;68.02;100432.59;5077715;28;988;-61
2022/06/08 08:44:49;;;;;;;;;;;;;;;17.49;67.66;100423.19;5069034;28;1205;-60
2022/06/08 08:47:33;;;;;;;;;;;;;;;17.67;68.47;100419.75;5049188;28;1122;-59
2022/06/08 08:50:00;;;;;;;;;;;;;;;18.07;69.22;100427.88;5055216;28;1294;-61
2022/06/08 08:52:37;;;;;;;;;;;;;;;18.10;68.36;100421.78;5066110;28;973;-60
2022/06/08 08:55:05;;;;;;;;;;;;;;;17.95;67.75;100420.06;5048182;28;1115;-62
2022/06/08 08:57:33;;;;;;;;;;;;;;;17.84;67.01;100423.97;5057215;28;1012;-60
2022/06/08 08:59:59;;;;;;;;;;;;;;;17.83;67.47;100422.34;5071217;28;1154;-60
2022/06/08 09:05:11;;;;;;;;;;;;;;;18.33;69.11;100441.34;5068467;28;988;-60
2022/06/08 09:07:36;;;;;;;;;;;;;;;18.27;68.92;100435.06;5071768;28;1003;-60
2022/06/08 09:10:02;;;;;;;;;;;;;;;18.12;68.18;100436.91;5072691;28;1015;-61
2022/06/08 09:12:27;;;;;;;;;;;;;;;18.09;67.80;100437.50;5072320;28;1154;-61
2022/06/08 09:14:59;;;;;;;;;;;;;;;18.08;68.71;100430.34;5069752;28;1913;-61
2022/06/08 09:17:33;;;;;;;;;;;;;;;18.36;68.87;100436.06;5073363;28;1162;-60
2022/06/08 09:19:59;;;;;;;;;;;;;;;18.30;68.55;100429.00;5067920;28;1043;-61
2022/06/08 09:22:26;;;;;;;;;;;;;;;18.00;67.28;100432.91;5053450;28;1402;-61
2022/06/08 09:24:51;;;;;;;;;;;;;;;17.68;66.19;100437.84;5067625;28;1078;-61
2022/06/08 09:27:22;;;;;;;;;;;;;;;17.48;64.94;100427.88;5068219;28;917;-62
2022/06/08 09:29:53;;;;;;;;;;;;;;;17.33;63.24;100441.75;5069032;28;954;-62
2022/06/08 09:32:23;;;;;;;;;;;;;;;17.25;61.45;100440.41;5073595;28;1032;-60
2022/06/08 09:34:53;;;;;;;;;;;;;;;17.44;59.35;100449.59;5055085;28;1983;-61
2022/06/08 09:37:24;;;;;;;;;;;;;;;17.20;57.66;100446.78;5075589;28;1035;-60
2022/06/08 09:39:49;;;;;;;;;;;;;;;17.06;56.08;100446.59;5052639;28;945;-60
2022/06/08 09:42:48;;;;;;;;;;;;;;;17.12;55.59;100444.63;5077334;28;1051;-60
2022/06/08 09:45:28;;;;;;;;;;;;;;;17.15;56.36;100456.97;5021634;28;1181;-61
2022/06/08 09:53:41;;;;;;;;;;;;;;;17.64;63.39;100436.78;5045980;28;1902;-60
2022/06/08 09:56:06;;;;;;;;;;;;;;;17.90;64.11;100445.63;5073355;28;972;-60
2022/06/08 09:58:41;;;;;;;;;;;;;;;18.09;64.71;100448.50;5071782;28;1023;-61
2022/06/08 10:01:11;;;;;;;;;;;;;;;17.94;65.93;100446.72;5071084;28;1150;-60
2022/06/08 10:03:39;;;;;;;;;;;;;;;17.74;67.32;100439.47;5069725;28;1395;-60
2022/06/08 10:06:06;;;;;;;;;;;;;;;18.06;67.05;100443.59;5071518;28;1031;-60
2022/06/08 10:08:35;;;;;;;;;;;;;;;18.27;66.58;100443.34;5056059;28;1087;-61
2022/06/08 10:11:34;;;;;;;;;;;;;;;17.93;67.84;100445.06;5071429;28;1035;-61
2022/06/08 10:13:52;;;;;;;;;;;;;;;17.75;68.39;100441.13;5059490;28;1983;-61
2022/06/08 10:16:22;;;;;;;;;;;;;;;17.68;68.02;100440.59;5052801;28;1240;-60
2022/06/08 10:18:57;;;;;;;;;;;;;;;17.79;67.89;100439.44;5071236;28;1159;-61
2022/06/08 10:21:24;;;;;;;;;;;;;;;18.12;68.40;100436.09;5050788;28;1080;-61
2022/06/08 10:23:49;;;;;;;;;;;;;;;18.26;68.11;100436.22;5052486;28;1146;-60
2022/06/08 10:26:19;;;;;;;;;;;;;;;17.99;68.24;100423.00;5065816;28;1000;-60
2022/06/08 10:28:46;;;;;;;;;;;;;;;17.89;68.07;100429.41;5055707;28;1123;-60
2022/06/08 10:31:17;;;;;;;;;;;;;;;17.74;67.61;100424.88;5056777;28;1176;-60
2022/06/08 10:33:49;;;;;;;;;;;;;;;17.74;67.38;100422.13;5048563;28;1906;-60
2022/06/08 10:36:15;;;;;;;;;;;;;;;17.69;67.81;100420.25;5029257;28;1152;-60
2022/06/08 10:38:44;;;;;;;;;;;;;;;18.09;68.82;100415.47;5067946;28;1040;-62
2022/06/08 10:42:39;;;;;;;;;;;;;;;18.39;68.07;100429.97;5069988;28;1094;-61
2022/06/08 10:43:55;;;;;;;;;;;;;;;18.13;68.13;100438.53;5071776;28;1521;-61
2022/06/08 10:46:32;;;;;;;;;;;;;;;17.99;67.29;100423.81;5067560;28;1020;-62
2022/06/08 10:48:57;;;;;;;;;;;;;;;17.69;67.66;100417.50;5069205;28;1118;-62
2022/06/08 10:51:28;;;;;;;;;;;;;;;17.84;67.57;100418.47;5070166;28;1047;-59
2022/06/08 10:56:38;;;;;;;;;;;;;;;17.76;67.29;100422.69;5063667;28;1004;-60
2022/06/08 10:59:03;;;;;;;;;;;;;;;17.82;65.12;100423.44;5068965;28;964;-59
2022/06/08 11:01:38;;;;;;;;;;;;;;;17.50;63.34;100420.19;5070087;28;1034;-62
2022/06/08 11:04:06;;;;;;;;;;;;;;;17.17;62.46;100422.63;5064812;28;1178;-64
2022/06/08 11:06:50;;;;;;;;;;;;;;;17.38;60.24;100427.97;5065781;28;1060;-65
2022/06/08 11:09:20;;;;;;;;;;;;;;;17.64;57.91;100423.03;5068108;28;1013;-64
2022/06/08 11:11:49;;;;;;;;;;;;;;;17.21;57.99;100429.19;5074642;28;1729;-64
2022/06/08 11:14:29;;;;;;;;;;;;;;;17.30;57.39;100423.91;5073732;28;1909;-63
2022/06/08 11:16:56;;;;;;;;;;;;;;;17.37;56.39;100424.38;5063267;28;1202;-64
2022/06/08 11:19:22;;;;;;;;;;;;;;;17.39;55.85;100418.59;5058776;28;1206;-61
2022/06/08 11:22:00;;;;;;;;;;;;;;;17.27;55.76;100418.97;5056222;28;848;-61
2022/06/08 11:24:48;;;;;;;;;;;;;;;16.98;56.02;100408.75;5046038;28;1148;-62
2022/06/08 11:27:20;;;;;;;;;;;;;;;17.27;53.32;100417.03;5058744;28;833;-57
2022/06/08 11:29:48;;;;;;;;;;;;;;;17.22;54.21;100410.75;5073547;28;1033;-58
2022/06/08 11:32:21;;;;;;;;;;;;;;;17.37;56.28;100404.34;5056194;28;874;-58
2022/06/08 11:34:50;;;;;;;;;;;;;;;17.39;58.80;100408.44;5056243;28;1988;-57
2022/06/08 11:37:34;;;;;;;;;;;;;;;17.69;60.89;100416.69;5053930;28;842;-57
2022/06/08 11:40:10;;;;;;;;;;;;;;;18.00;61.41;100417.22;5055698;28;850;-57
2022/06/08 11:42:47;;;;;;;;;;;;;;;17.59;64.37;100403.88;5054733;28;802;-58
2022/06/08 11:45:18;;;;;;;;;;;;;;;17.51;65.67;100405.31;5048093;28;954;-58
2022/06/08 11:47:49;;;;;;;;;;;;;;;17.95;65.35;100404.34;5073291;28;1554;-56
2022/06/08 11:50:16;;;;;;;;;;;;;;;18.19;65.13;100402.69;5051826;28;1048;-56
2022/06/08 11:52:45;;;;;;;;;;;;;;;18.21;65.33;100401.28;5056926;28;1883;-57
2022/06/08 11:55:12;;;;;;;;;;;;;;;18.19;65.99;100402.69;5057908;28;817;-57
2022/06/08 11:57:39;;;;;;;;;;;;;;;18.24;66.08;100402.63;5076077;28;881;-57
2022/06/08 12:00:06;;;;;;;;;;;;;;;18.61;65.16;100392.81;5038572;28;837;-57
2022/06/08 12:02:38;;;;;;;;;;;;;;;18.83;64.64;100388.66;5071017;28;654;-57
2022/06/08 12:05:04;;;;;;;;;;;;;;;18.66;64.58;100378.16;5055988;28;924;-57
2022/06/08 12:07:29;;;;;;;;;;;;;;;17.94;62.81;100377.13;5066624;28;1467;-56
2022/06/08 12:09:55;;;;;;;;;;;;;;;17.24;59.69;100372.84;5064536;28;1697;-57
2022/06/08 12:12:21;;;;;;;;;;;;;;;17.15;55.97;100380.88;5066897;28;965;-57
2022/06/08 12:14:47;;;;;;;;;;;;;;;17.31;51.40;100387.06;5053720;28;1913;-57
2022/06/08 12:17:12;;;;;;;;;;;;;;;17.09;49.84;100366.34;5070490;28;1048;-56
2022/06/08 12:19:55;;;;;;;;;;;;;;;17.19;48.75;100368.19;5064916;28;1000;-55
2022/06/08 12:22:24;;;;;;;;;;;;;;;17.40;50.29;100371.63;5059052;28;992;-57
2022/06/08 12:25:09;;;;;;;;;;;;;;;17.53;53.84;100361.88;5066457;28;1234;-57
2022/06/08 12:27:43;;;;;;;;;;;;;;;17.79;56.51;100356.94;5066386;28;1255;-57
2022/06/08 12:30:21;;;;;;;;;;;;;;;18.08;58.52;100353.31;5060777;28;1233;-58
2022/06/08 12:32:51;;;;;;;;;;;;;;;17.83;61.32;100348.09;5063511;28;1905;-57
2022/06/08 12:35:35;;;;;;;;;;;;;;;17.84;63.26;100357.94;5064774;28;969;-56
2022/06/08 12:38:13;;;;;;;;;;;;;;;17.89;64.44;100341.41;5051930;28;1036;-57
2022/06/08 12:40:38;;;;;;;;;;;;;;;18.21;64.03;100340.75;5064035;28;1205;-57
2022/06/08 12:43:07;;;;;;;;;;;;;;;18.43;64.13;100331.94;5064189;28;1024;-57
2022/06/08 12:45:34;;;;;;;;;;;;;;;18.23;65.38;100323.94;5069376;28;1142;-57
2022/06/08 12:48:18;;;;;;;;;;;;;;;18.28;65.68;100319.19;5062319;28;1067;-57
2022/06/08 12:50:43;;;;;;;;;;;;;;;18.27;65.97;100314.81;5066041;28;1096;-57
2022/06/08 12:53:08;;;;;;;;;;;;;;;18.29;66.21;100320.03;5047900;28;1998;-56
2022/06/08 12:55:36;;;;;;;;;;;;;;;18.41;66.30;100314.91;5067460;28;964;-57
2022/06/08 12:58:02;;;;;;;;;;;;;;;18.29;66.84;100314.50;5067839;28;1059;-56
2022/06/08 13:00:30;;;;;;;;;;;;;;;18.21;65.85;100301.41;5068651;28;1005;-56
2022/06/08 13:02:57;;;;;;;;;;;;;;;18.04;64.16;100323.94;5071368;28;986;-56
2022/06/08 13:05:27;;;;;;;;;;;;;;;17.88;61.00;100309.50;5065998;28;1130;-56
2022/06/08 13:07:56;;;;;;;;;;;;;;;18.03;57.78;100292.03;5064830;28;1151;-56
2022/06/08 13:10:25;;;;;;;;;;;;;;;18.07;54.63;100309.56;5059395;28;1079;-56
2022/06/08 13:12:54;;;;;;;;;;;;;;;17.93;52.71;100287.47;5061165;28;1906;-56
2022/06/08 13:15:26;;;;;;;;;;;;;;;17.50;51.84;100287.38;5065207;28;1045;-56
2022/06/08 13:17:51;;;;;;;;;;;;;;;17.74;49.91;100285.47;5072774;28;949;-57